createdAt,value
2018-09-24T00:00:22.206Z,99.90
2018-09-24T00:02:50.581Z,99.90
2018-09-24T00:05:18.988Z,99.90
2018-09-24T00:07:47.429Z,99.90
2018-09-24T00:10:15.965Z,99.90
2018-09-24T00:12:44.354Z,99.90
2018-09-24T00:15:12.757Z,99.90
2018-09-24T00:17:41.149Z,99.90
2018-09-24T00:20:09.793Z,99.90
2018-09-24T00:22:38.177Z,99.90
2018-09-24T00:25:06.618Z,99.90
2018-09-24T00:27:35.240Z,99.90
2018-09-24T00:30:03.705Z,99.90
2018-09-24T00:32:32.128Z,99.90
2018-09-24T00:35:00.518Z,99.90
2018-09-24T00:37:28.913Z,99.90
2018-09-24T00:39:57.353Z,99.90
2018-09-24T00:42:25.752Z,99.90
2018-09-24T00:44:54.177Z,99.90
2018-09-24T00:47:22.776Z,99.90
2018-09-24T00:49:51.141Z,99.90
2018-09-24T00:52:20.073Z,99.90
2018-09-24T00:54:48.600Z,99.90
2018-09-24T00:57:17.070Z,99.90
2018-09-24T00:59:45.470Z,99.90
2018-09-24T01:02:13.864Z,99.90
2018-09-24T01:04:42.259Z,99.90
2018-09-24T01:07:10.702Z,99.90
2018-09-24T01:09:39.101Z,99.90
2018-09-24T01:12:07.517Z,99.90
2018-09-24T01:14:35.912Z,99.90
2018-09-24T01:17:04.368Z,99.90
2018-09-24T01:19:33.012Z,99.90
2018-09-24T01:22:01.412Z,99.90
2018-09-24T01:24:29.816Z,99.90
2018-09-24T01:26:58.273Z,99.90
2018-09-24T01:29:26.627Z,99.90
2018-09-24T01:31:55.056Z,99.90
2018-09-24T01:34:23.444Z,99.90
2018-09-24T01:36:51.835Z,99.90
2018-09-24T01:39:20.230Z,99.90
2018-09-24T01:41:48.609Z,99.90
2018-09-24T01:44:17.017Z,99.90
2018-09-24T01:46:45.572Z,99.90
2018-09-24T01:49:14.053Z,99.90
2018-09-24T01:51:42.565Z,99.90
2018-09-24T01:54:10.941Z,99.90
2018-09-24T01:56:39.341Z,99.90
2018-09-24T01:59:07.713Z,99.90
2018-09-24T02:01:36.112Z,99.90
2018-09-24T02:04:04.505Z,99.90
2018-09-24T02:06:32.888Z,99.90
2018-09-24T02:09:01.298Z,99.90
2018-09-24T02:11:29.664Z,99.90
2018-09-24T02:13:58.077Z,99.90
2018-09-24T02:16:26.452Z,99.90
2018-09-24T02:18:59.347Z,99.90
2018-09-24T02:21:28.046Z,99.90
2018-09-24T02:26:38.656Z,99.90
2018-09-24T02:29:07.071Z,99.90
2018-09-24T02:31:39.621Z,99.90
2018-09-24T02:34:09.216Z,99.90
2018-09-24T02:36:37.777Z,99.90
2018-09-24T02:39:08.119Z,99.90
2018-09-24T02:41:36.514Z,99.90
2018-09-24T02:44:04.913Z,99.90
2018-09-24T02:46:33.717Z,99.90
2018-09-24T02:49:03.667Z,99.90
2018-09-24T02:51:32.682Z,99.90
2018-09-24T02:54:01.068Z,99.90
2018-09-24T02:56:29.452Z,99.90
2018-09-24T02:58:57.840Z,99.90
2018-09-24T03:01:31.666Z,99.90
2018-09-24T03:04:00.109Z,99.90
2018-09-24T03:06:33.814Z,99.90
2018-09-24T03:09:02.205Z,99.90
2018-09-24T03:11:30.586Z,99.90
2018-09-24T03:13:58.965Z,99.90
2018-09-24T03:16:27.623Z,99.90
2018-09-24T03:18:57.709Z,99.90
2018-09-24T03:21:26.235Z,99.90
2018-09-24T03:23:54.652Z,99.90
2018-09-24T03:26:23.137Z,99.90
2018-09-24T03:28:51.469Z,99.90
2018-09-24T03:31:19.891Z,99.90
2018-09-24T03:33:48.374Z,99.90
2018-09-24T03:36:16.947Z,99.90
2018-09-24T03:38:45.372Z,99.90
2018-09-24T03:41:13.773Z,99.90
2018-09-24T03:43:42.231Z,99.90
2018-09-24T03:46:10.640Z,99.90
2018-09-24T03:48:39.009Z,99.90
2018-09-24T03:51:07.429Z,99.90
2018-09-24T03:53:35.805Z,99.90
2018-09-24T03:56:04.192Z,99.90
2018-09-24T03:58:32.588Z,99.90
2018-09-24T04:01:00.992Z,99.90
2018-09-24T04:03:29.364Z,99.90
2018-09-24T04:06:03.273Z,99.90
2018-09-24T04:08:37.180Z,99.90
2018-09-24T04:11:10.970Z,99.90
2018-09-24T04:13:44.619Z,99.90
2018-09-24T04:16:18.385Z,99.90
2018-09-24T04:18:52.183Z,99.90
2018-09-24T04:21:25.918Z,99.90
2018-09-24T04:23:59.582Z,99.90
2018-09-24T04:26:33.206Z,99.90
2018-09-24T04:29:06.940Z,99.90
2018-09-24T04:31:40.925Z,99.90
2018-09-24T04:34:14.581Z,99.90
2018-09-24T04:36:48.414Z,99.90
2018-09-24T04:39:22.239Z,99.90
2018-09-24T04:41:55.907Z,99.90
2018-09-24T04:44:29.701Z,99.90
2018-09-24T04:47:03.577Z,99.90
2018-09-24T04:49:37.402Z,99.90
2018-09-24T04:52:11.293Z,99.90
2018-09-24T04:54:45.141Z,99.90
2018-09-24T04:57:19.068Z,99.90
2018-09-24T04:59:52.758Z,99.90
2018-09-24T05:02:27.571Z,99.90
2018-09-24T05:05:01.137Z,99.90
2018-09-24T05:07:35.005Z,99.90
2018-09-24T05:10:09.724Z,99.90
2018-09-24T05:12:43.496Z,99.90
2018-09-24T05:15:17.097Z,99.90
2018-09-24T05:17:50.830Z,99.90
2018-09-24T05:20:24.543Z,99.90
2018-09-24T05:22:58.213Z,99.90
2018-09-24T05:25:31.899Z,99.90
2018-09-24T05:28:05.609Z,99.90
2018-09-24T05:30:40.273Z,99.90
2018-09-24T05:33:13.893Z,99.90
2018-09-24T05:35:47.640Z,99.90
2018-09-24T05:38:21.472Z,99.90
2018-09-24T05:40:55.172Z,99.90
2018-09-24T05:43:29.092Z,99.90
2018-09-24T05:46:02.857Z,99.90
2018-09-24T05:48:36.677Z,99.90
2018-09-24T05:51:10.808Z,99.90
2018-09-24T05:53:44.596Z,99.90
2018-09-24T05:56:18.381Z,99.90
2018-09-24T05:58:52.242Z,99.90
2018-09-24T06:01:26.038Z,99.90
2018-09-24T06:04:00.040Z,99.90
2018-09-24T06:06:33.945Z,99.90
2018-09-24T06:09:07.756Z,99.90
2018-09-24T06:11:41.598Z,99.90
2018-09-24T06:14:15.468Z,99.90
2018-09-24T06:16:49.030Z,99.90
2018-09-24T06:19:23.042Z,99.90
2018-09-24T06:21:56.765Z,99.90
2018-09-24T06:24:30.386Z,99.90
2018-09-24T06:27:04.278Z,99.90
2018-09-24T06:29:38.323Z,99.90
2018-09-24T06:32:12.161Z,99.90
2018-09-24T06:34:45.997Z,99.90
2018-09-24T06:37:19.789Z,99.90
2018-09-24T06:39:53.537Z,99.90
2018-09-24T06:42:27.406Z,99.90
2018-09-24T06:45:01.124Z,99.90
2018-09-24T06:47:34.692Z,99.90
2018-09-24T06:50:08.417Z,99.90
2018-09-24T06:52:42.102Z,99.90
2018-09-24T06:55:15.708Z,99.90
2018-09-24T06:57:49.436Z,99.90
2018-09-24T07:00:23.117Z,99.90
2018-09-24T07:02:56.922Z,99.90
2018-09-24T07:05:31.042Z,99.90
2018-09-24T07:08:04.848Z,99.90
2018-09-24T07:10:39.057Z,99.90
2018-09-24T07:13:12.780Z,99.90
2018-09-24T07:15:46.501Z,99.90
2018-09-24T07:18:20.209Z,99.90
2018-09-24T07:20:53.983Z,99.90
2018-09-24T07:23:27.653Z,99.90
2018-09-24T07:26:01.410Z,99.90
2018-09-24T07:28:35.073Z,99.90
2018-09-24T07:31:08.797Z,99.90
2018-09-24T07:33:42.449Z,99.90
2018-09-24T07:36:16.087Z,99.90
2018-09-24T07:38:49.867Z,99.90
2018-09-24T07:41:23.598Z,99.90
2018-09-24T07:43:57.644Z,99.90
2018-09-24T07:46:31.377Z,99.90
2018-09-24T07:49:05.334Z,99.90
2018-09-24T07:51:38.992Z,99.90
2018-09-24T07:54:12.629Z,99.90
2018-09-24T07:56:46.300Z,99.90
2018-09-24T07:59:20.039Z,99.90
2018-09-24T08:01:53.721Z,99.90
2018-09-24T08:04:27.562Z,99.90
2018-09-24T08:07:01.333Z,99.90
2018-09-24T08:09:35.356Z,99.90
2018-09-24T08:12:09.154Z,99.90
2018-09-24T08:14:43.193Z,99.90
2018-09-24T08:17:16.890Z,99.90
2018-09-24T08:19:50.703Z,99.90
2018-09-24T08:22:24.573Z,99.90
2018-09-24T08:24:58.257Z,99.90
2018-09-24T08:27:31.888Z,99.90
2018-09-24T08:30:05.673Z,99.90
2018-09-24T08:32:39.368Z,99.90
2018-09-24T08:35:13.101Z,99.90
2018-09-24T08:37:46.773Z,99.90
2018-09-24T08:40:20.820Z,99.90
2018-09-24T08:42:54.562Z,99.90
2018-09-24T08:45:28.230Z,99.90
2018-09-24T08:48:01.940Z,99.90
2018-09-24T08:50:35.832Z,99.90
2018-09-24T08:53:09.558Z,99.90
2018-09-24T08:55:43.310Z,99.90
2018-09-24T08:58:17.121Z,99.90
2018-09-24T09:00:50.853Z,99.90
2018-09-24T09:03:24.599Z,99.90
2018-09-24T09:05:58.247Z,99.90
2018-09-24T09:08:31.833Z,99.90
2018-09-24T09:11:05.452Z,99.90
2018-09-24T09:13:39.185Z,99.90
2018-09-24T09:16:13.141Z,99.90
2018-09-24T09:18:46.869Z,99.90
2018-09-24T09:21:20.684Z,99.90
2018-09-24T09:23:54.643Z,99.90
2018-09-24T09:26:28.335Z,99.90
2018-09-24T09:29:02.207Z,99.90
2018-09-24T09:31:36.051Z,99.90
2018-09-24T09:34:09.802Z,99.90
2018-09-24T09:36:43.467Z,99.90
2018-09-24T09:39:17.521Z,99.90
2018-09-24T09:41:51.284Z,99.90
2018-09-24T09:44:25.117Z,99.90
2018-09-24T09:46:58.869Z,99.90
2018-09-24T09:49:32.635Z,99.90
2018-09-24T09:52:06.312Z,99.90
2018-09-24T09:54:40.037Z,99.90
2018-09-24T09:57:13.721Z,99.90
2018-09-24T09:59:47.429Z,99.90
2018-09-24T10:02:21.001Z,99.90
2018-09-24T10:04:54.960Z,99.90
2018-09-24T10:07:28.709Z,99.90
2018-09-24T10:10:02.662Z,99.90
2018-09-24T10:12:36.428Z,99.90
2018-09-24T10:15:10.273Z,99.90
2018-09-24T10:17:44.022Z,99.90
2018-09-24T10:20:17.873Z,99.90
2018-09-24T10:22:51.465Z,99.90
2018-09-24T10:25:25.407Z,99.90
2018-09-24T10:27:59.178Z,99.90
2018-09-24T10:30:32.986Z,99.90
2018-09-24T10:33:06.702Z,99.90
2018-09-24T10:35:40.491Z,99.90
2018-09-24T10:38:14.221Z,99.90
2018-09-24T10:40:48.222Z,99.90
2018-09-24T10:43:21.827Z,98.80
2018-09-24T10:45:55.739Z,95.90
2018-09-24T10:48:29.511Z,93.90
2018-09-24T10:51:03.257Z,92.90
2018-09-24T10:53:37.038Z,93.70
2018-09-24T10:56:10.930Z,92.50
2018-09-24T10:58:44.735Z,91.60
2018-09-24T11:01:18.587Z,92.10
2018-09-24T11:03:52.458Z,89.30
2018-09-24T11:06:26.064Z,88.20
2018-09-24T11:08:59.832Z,86.30
2018-09-24T11:11:34.000Z,82.40
2018-09-24T11:14:07.697Z,87.80
2018-09-24T11:16:41.597Z,88.00
2018-09-24T11:19:14.972Z,91.30
2018-09-24T11:21:48.915Z,90.40
2018-09-24T11:24:22.790Z,91.10
2018-09-24T11:26:56.744Z,89.40
2018-09-24T11:29:30.549Z,85.30
2018-09-24T11:32:04.269Z,86.70
2018-09-24T11:34:38.128Z,85.10
2018-09-24T11:37:11.868Z,81.90
2018-09-24T11:39:45.744Z,77.60
2018-09-24T11:42:19.592Z,80.20
2018-09-24T11:44:53.322Z,83.00
2018-09-24T11:47:27.017Z,87.70
2018-09-24T11:50:00.837Z,91.00
2018-09-24T11:52:34.621Z,95.10
2018-09-24T11:55:08.341Z,99.40
2018-09-24T11:57:41.940Z,99.50
2018-09-24T12:00:15.689Z,99.90
2018-09-24T12:02:49.582Z,99.90
2018-09-24T12:05:23.297Z,99.90
2018-09-24T12:07:57.069Z,99.90
2018-09-24T12:10:30.807Z,99.90
2018-09-24T12:13:04.470Z,99.90
2018-09-24T12:15:38.231Z,99.90
2018-09-24T12:18:11.922Z,99.90
2018-09-24T12:20:45.656Z,99.90
2018-09-24T12:23:19.380Z,99.90
2018-09-24T12:25:52.952Z,99.90
2018-09-24T12:28:26.789Z,99.90
2018-09-24T12:31:00.560Z,99.90
2018-09-24T12:33:34.545Z,99.90
2018-09-24T12:36:08.434Z,99.90
2018-09-24T12:38:42.129Z,99.90
2018-09-24T12:41:15.819Z,99.90
2018-09-24T12:43:49.424Z,99.90
2018-09-24T12:46:23.188Z,99.90
2018-09-24T12:48:56.873Z,99.90
2018-09-24T12:51:30.561Z,99.90
2018-09-24T12:54:04.466Z,99.90
2018-09-24T12:56:38.254Z,99.90
2018-09-24T12:59:12.176Z,99.90
2018-09-24T13:01:45.976Z,99.90
2018-09-24T13:04:19.744Z,99.90
2018-09-24T13:06:53.363Z,99.90
2018-09-24T13:09:27.209Z,99.90
2018-09-24T13:12:01.020Z,99.90
2018-09-24T13:14:34.764Z,99.90
2018-09-24T13:17:08.392Z,99.90
2018-09-24T13:19:42.155Z,99.90
2018-09-24T13:22:16.103Z,99.90
2018-09-24T13:24:50.014Z,99.90
2018-09-24T13:27:23.592Z,99.90
2018-09-24T13:29:57.281Z,99.90
2018-09-24T13:32:31.449Z,99.90
2018-09-24T13:35:05.025Z,99.90
2018-09-24T13:37:38.836Z,99.90
2018-09-24T13:40:12.614Z,99.90
2018-09-24T13:42:46.344Z,99.90
2018-09-24T13:45:20.263Z,99.90
2018-09-24T13:47:54.156Z,99.90
2018-09-24T13:50:27.961Z,99.90
2018-09-24T13:53:01.683Z,99.90
2018-09-24T13:55:35.443Z,99.90
2018-09-24T13:58:09.368Z,99.90
2018-09-24T14:00:43.189Z,99.90
2018-09-24T14:03:16.893Z,99.90
2018-09-24T14:05:50.679Z,99.90
2018-09-24T14:08:24.381Z,99.90
2018-09-24T14:10:58.203Z,99.90
2018-09-24T14:13:31.917Z,99.90
2018-09-24T14:16:05.692Z,99.90
2018-09-24T14:18:39.654Z,99.90
2018-09-24T14:21:13.264Z,99.90
2018-09-24T14:23:47.228Z,99.90
2018-09-24T14:26:21.003Z,99.90
2018-09-24T14:28:54.945Z,99.90
2018-09-24T14:31:28.836Z,99.90
2018-09-24T14:34:02.577Z,99.90
2018-09-24T14:36:36.316Z,99.90
2018-09-24T14:39:12.576Z,99.90
2018-09-24T14:41:46.935Z,99.90
2018-09-24T14:44:20.743Z,99.90
2018-09-24T14:46:54.398Z,99.90
2018-09-24T14:49:28.380Z,99.90
2018-09-24T14:52:02.089Z,99.90
2018-09-24T14:54:35.844Z,99.90
2018-09-24T14:57:09.667Z,99.90
2018-09-24T14:59:43.454Z,99.90
2018-09-24T15:02:17.151Z,99.90
2018-09-24T15:04:50.889Z,99.90
2018-09-24T15:07:24.577Z,99.90
2018-09-24T15:09:58.412Z,99.90
2018-09-24T15:12:32.318Z,99.90
2018-09-24T15:15:06.419Z,99.90
2018-09-24T15:17:40.308Z,99.90
2018-09-24T15:20:14.636Z,99.90
2018-09-24T15:22:48.316Z,99.90
2018-09-24T15:25:29.136Z,99.90
2018-09-24T15:28:02.833Z,99.90
2018-09-24T15:30:36.535Z,99.90
2018-09-24T15:33:10.385Z,99.90
2018-09-24T15:35:44.095Z,99.90
2018-09-24T15:38:17.841Z,99.90
2018-09-24T15:40:51.761Z,99.90
2018-09-24T15:43:25.528Z,99.90
2018-09-24T15:45:59.352Z,99.90
2018-09-24T15:48:33.019Z,99.90
2018-09-24T15:51:06.641Z,99.90
2018-09-24T15:53:40.430Z,99.90
2018-09-24T15:56:14.151Z,99.90
2018-09-24T15:58:48.162Z,99.90
2018-09-24T16:01:21.900Z,99.90
2018-09-24T16:03:55.581Z,99.90
2018-09-24T16:06:29.329Z,99.90
2018-09-24T16:09:03.304Z,99.90
2018-09-24T16:11:36.969Z,99.90
2018-09-24T16:14:10.764Z,99.90
2018-09-24T16:16:44.602Z,99.90
2018-09-24T16:19:18.574Z,99.90
2018-09-24T16:21:52.497Z,99.90
2018-09-24T16:24:26.188Z,99.90
2018-09-24T16:27:00.105Z,99.90
2018-09-24T16:29:33.806Z,99.90
2018-09-24T16:32:07.401Z,99.90
2018-09-24T16:34:41.172Z,99.90
2018-09-24T16:37:14.814Z,99.90
2018-09-24T16:39:48.613Z,99.90
2018-09-24T16:42:22.232Z,99.90
2018-09-24T16:44:56.120Z,99.90
2018-09-24T16:47:29.962Z,99.90
2018-09-24T16:50:03.710Z,99.90
2018-09-24T16:52:37.565Z,99.90
2018-09-24T16:55:11.137Z,99.90
2018-09-24T16:57:44.761Z,99.90
2018-09-24T17:00:18.584Z,99.90
2018-09-24T17:02:53.017Z,99.90
2018-09-24T17:05:26.959Z,99.90
2018-09-24T17:08:01.159Z,99.90
2018-09-24T17:10:34.871Z,99.90
2018-09-24T17:13:08.688Z,99.90
2018-09-24T17:15:42.395Z,99.90
2018-09-24T17:18:16.117Z,99.90
2018-09-24T17:20:49.845Z,99.90
2018-09-24T17:23:23.749Z,99.90
2018-09-24T17:25:57.325Z,99.90
2018-09-24T17:28:31.246Z,99.90
2018-09-24T17:31:04.877Z,99.90
2018-09-24T17:33:38.509Z,99.90
2018-09-24T17:36:12.542Z,99.90
2018-09-24T17:38:46.443Z,99.90
2018-09-24T17:41:20.416Z,99.90
2018-09-24T17:43:54.357Z,99.90
2018-09-24T17:46:28.095Z,99.90
2018-09-24T17:49:01.852Z,99.90
2018-09-24T17:51:35.746Z,99.90
2018-09-24T17:54:09.356Z,99.90
2018-09-24T17:56:43.153Z,99.90
2018-09-24T17:59:16.976Z,99.90
2018-09-24T18:01:50.678Z,99.90
2018-09-24T18:04:24.514Z,99.90
2018-09-24T18:06:58.252Z,99.90
2018-09-24T18:09:32.026Z,99.90
2018-09-24T18:12:05.801Z,99.90
2018-09-24T18:14:39.397Z,99.90
2018-09-24T18:17:13.121Z,99.90
2018-09-24T18:19:47.133Z,99.90
2018-09-24T18:22:20.915Z,99.90
2018-09-24T18:24:54.685Z,99.90
2018-09-24T18:27:28.416Z,99.90
2018-09-24T18:30:02.196Z,99.90
2018-09-24T18:32:36.028Z,99.90
2018-09-24T18:35:09.955Z,99.90
2018-09-24T18:37:43.634Z,99.90
2018-09-24T18:40:17.604Z,99.90
2018-09-24T18:42:51.489Z,99.90
2018-09-24T18:45:25.264Z,99.90
2018-09-24T18:47:58.962Z,99.90
2018-09-24T18:50:32.686Z,99.90
2018-09-24T18:53:06.547Z,99.90
2018-09-24T18:55:40.492Z,99.90
2018-09-24T18:58:14.248Z,99.90
2018-09-24T19:00:48.222Z,99.90
2018-09-24T19:03:21.976Z,99.90
2018-09-24T19:05:55.933Z,99.90
2018-09-24T19:08:29.810Z,99.90
2018-09-24T19:11:03.888Z,99.90
2018-09-24T19:13:37.502Z,99.90
2018-09-24T19:16:11.241Z,99.90
2018-09-24T19:18:45.190Z,99.90
2018-09-24T19:21:19.100Z,99.90
2018-09-24T19:23:53.053Z,99.90
2018-09-24T19:26:27.029Z,99.90
2018-09-24T19:29:00.876Z,99.90
2018-09-24T19:31:34.703Z,99.90
2018-09-24T19:34:08.532Z,99.90
2018-09-24T19:36:42.518Z,99.90
2018-09-24T19:39:16.442Z,99.90
2018-09-24T19:41:50.096Z,99.90
2018-09-24T19:44:23.796Z,99.90
2018-09-24T19:46:57.532Z,99.90
2018-09-24T19:49:31.288Z,99.90
2018-09-24T19:52:05.340Z,99.90
2018-09-24T19:54:39.020Z,99.90
2018-09-24T19:57:13.095Z,99.90
2018-09-24T19:59:46.921Z,99.90
2018-09-24T20:02:20.893Z,99.90
2018-09-24T20:04:54.760Z,99.90
2018-09-24T20:07:28.555Z,99.90
2018-09-24T20:10:02.390Z,99.90
2018-09-24T20:12:36.389Z,99.90
2018-09-24T20:15:10.205Z,99.90
2018-09-24T20:17:44.116Z,99.90
2018-09-24T20:20:17.800Z,99.90
2018-09-24T20:22:51.812Z,99.90
2018-09-24T20:25:25.699Z,99.90
2018-09-24T20:27:59.430Z,99.90
2018-09-24T20:30:33.202Z,99.90
2018-09-24T20:33:06.954Z,99.90
2018-09-24T20:35:40.836Z,99.90
2018-09-24T20:38:14.643Z,99.90
2018-09-24T20:40:48.284Z,99.90
2018-09-24T20:43:21.921Z,99.90
2018-09-24T20:45:55.777Z,99.90
2018-09-24T20:48:30.473Z,99.90
2018-09-24T20:51:04.353Z,99.90
2018-09-24T20:53:38.073Z,99.90
2018-09-24T20:56:12.132Z,99.90
2018-09-24T20:58:46.014Z,99.90
2018-09-24T21:01:19.616Z,99.90
2018-09-24T21:03:53.380Z,99.90
2018-09-24T21:06:27.149Z,99.90
2018-09-24T21:09:01.008Z,99.90
2018-09-24T21:11:34.669Z,99.90
2018-09-24T21:14:08.400Z,99.90
2018-09-24T21:16:42.011Z,99.90
2018-09-24T21:19:15.813Z,99.90
2018-09-24T21:21:49.628Z,99.90
2018-09-24T21:24:23.321Z,99.90
2018-09-24T21:26:57.029Z,99.90
2018-09-24T21:29:30.842Z,99.90
2018-09-24T21:32:04.612Z,99.90
2018-09-24T21:34:38.492Z,99.90
2018-09-24T21:37:12.077Z,99.90
2018-09-24T21:39:45.724Z,99.90
2018-09-24T21:42:19.636Z,99.90
2018-09-24T21:44:53.387Z,99.90
2018-09-24T21:47:27.102Z,99.90
2018-09-24T21:50:00.874Z,99.90
2018-09-24T21:52:34.592Z,99.90
2018-09-24T21:55:08.369Z,99.90
2018-09-24T21:57:42.285Z,99.90
2018-09-24T22:00:16.053Z,99.90
2018-09-24T22:02:49.849Z,99.90
2018-09-24T22:05:23.700Z,99.90
2018-09-24T22:07:57.456Z,99.90
2018-09-24T22:10:31.134Z,99.90
2018-09-24T22:13:04.784Z,99.90
2018-09-24T22:15:38.492Z,99.90
2018-09-24T22:18:12.472Z,99.90
2018-09-24T22:20:46.021Z,99.90
2018-09-24T22:23:19.980Z,99.90
2018-09-24T22:25:53.711Z,99.90
2018-09-24T22:28:27.324Z,99.90
2018-09-24T22:31:00.965Z,99.90
2018-09-24T22:33:34.849Z,99.90
2018-09-24T22:36:08.707Z,99.90
2018-09-24T22:38:42.460Z,99.90
2018-09-24T22:41:16.203Z,99.90
2018-09-24T22:43:50.036Z,99.90
2018-09-24T22:46:23.620Z,99.90
2018-09-24T22:48:57.258Z,99.90
2018-09-24T22:51:31.052Z,99.90
2018-09-24T22:54:04.872Z,99.90
2018-09-24T22:56:38.721Z,99.90
2018-09-24T22:59:12.652Z,99.90
2018-09-24T23:01:46.422Z,99.90
2018-09-24T23:04:20.320Z,99.90
2018-09-24T23:06:54.080Z,99.90
2018-09-24T23:09:28.107Z,99.90
2018-09-24T23:12:01.928Z,99.90
2018-09-24T23:14:35.699Z,99.90
2018-09-24T23:17:09.400Z,99.90
2018-09-24T23:19:43.174Z,99.90
2018-09-24T23:22:16.756Z,99.90
2018-09-24T23:24:50.420Z,99.90
2018-09-24T23:27:24.144Z,99.90
2018-09-24T23:29:58.141Z,99.90
2018-09-24T23:32:32.032Z,99.90
2018-09-24T23:35:05.768Z,99.90
2018-09-24T23:37:39.536Z,99.90
2018-09-24T23:40:13.348Z,99.90
2018-09-24T23:42:47.078Z,99.90
2018-09-24T23:45:20.832Z,99.90
2018-09-24T23:47:54.518Z,99.90
2018-09-24T23:50:28.373Z,99.90
2018-09-24T23:53:02.138Z,99.90
2018-09-24T23:55:35.975Z,99.90
2018-09-24T23:58:09.744Z,99.90
